createdAt,value
2023-03-17T08:05:25.479Z,86.00
2023-03-17T08:05:55.336Z,28.00
2023-03-17T08:06:23.833Z,223.00
2023-03-17T08:06:54.714Z,219.00
2023-03-17T08:07:24.989Z,219.00
2023-03-17T08:07:52.702Z,223.00
2023-03-17T08:08:23.668Z,224.00
2023-03-17T08:08:55.739Z,230.00
2023-03-17T09:59:46.369Z,93.00
2023-03-17T10:00:20.533Z,32.00
2023-03-17T10:00:52.553Z,308.00
2023-03-17T10:01:21.023Z,307.00
2023-03-17T10:01:49.210Z,304.00
2023-03-17T10:02:17.651Z,333.00
2023-03-17T10:02:46.829Z,332.00
2023-03-17T10:03:21.698Z,339.00
2023-03-17T10:03:49.173Z,341.00
2023-03-17T10:04:18.948Z,329.00
2023-03-17T10:04:48.733Z,317.00
2023-03-17T10:05:19.401Z,317.00
2023-03-17T10:05:50.707Z,313.00
2023-03-17T10:06:20.049Z,311.00
2023-03-17T10:06:48.318Z,315.00
2023-03-17T10:07:18.947Z,312.00
2023-03-17T10:07:47.004Z,308.00
2023-03-17T10:08:30.043Z,307.00
2023-03-17T10:11:27.757Z,308.00
2023-03-17T10:11:38.681Z,249.00
2023-03-17T10:12:05.675Z,364.00
2023-03-17T10:12:34.677Z,371.00
2023-03-17T10:13:04.344Z,357.00
2023-03-17T10:13:37.742Z,350.00
2023-03-17T10:14:03.402Z,356.00
2023-03-17T10:14:35.195Z,319.00
2023-03-17T10:15:04.164Z,347.00
2023-03-17T10:15:36.011Z,346.00
2023-03-17T10:16:03.681Z,336.00
2023-03-17T10:16:34.180Z,346.00
2023-03-17T10:17:04.993Z,349.00
2023-03-17T10:17:34.275Z,344.00
2023-03-17T10:18:03.112Z,361.00
2023-03-17T10:18:34.206Z,334.00
2023-03-17T10:19:06.746Z,345.00
2023-03-17T10:19:35.160Z,339.00
2023-03-17T10:20:02.861Z,345.00
2023-03-17T10:20:34.334Z,333.00
2023-03-17T10:21:07.942Z,381.00
2023-03-17T10:21:36.641Z,398.00
2023-03-17T10:22:05.661Z,399.00
2023-03-17T10:22:36.162Z,376.00
2023-03-17T10:23:04.232Z,362.00
2023-03-17T10:23:35.025Z,393.00
2023-03-17T10:24:04.829Z,402.00
2023-03-17T10:24:37.424Z,413.00
2023-03-17T10:25:36.093Z,406.00
2023-03-17T10:26:34.366Z,452.00
